Terminal Aerodrome Forecast
Issued by NWS

Home | Current Version | Previous Version | Text Only | Print | Product List | Glossary Off
Versions: 1 2 3 4 5 6 7 8 9 10 11 12 13 14 15 16 17 18 19 20 21 22 23 24 25 26 27 28 29 30 31 32 33 34 35 36 37 38 39 40 41

000
FTUS43 KGRB 030346 AAC
TAFRHI
TAF AMD
KRHI 030346Z 0304/0324 27005KT P6SM BKN070
      TEMPO 0304/0306 2SM BR SCT070
     FM031600 30010KT P6SM BKN050
      TEMPO 0321/0324 6SM -SHRA OVC050=

USA.gov is the U.S. government's official web portal to all federal, state and local government web resources and services.